createdAt,value
2022-12-25T00:00:02.629Z,78.70
2022-12-25T00:02:32.228Z,78.70
2022-12-25T00:05:00.515Z,78.70
2022-12-25T00:07:28.694Z,78.60
2022-12-25T00:09:56.941Z,78.60
2022-12-25T00:12:25.293Z,78.60
2022-12-25T00:14:54.463Z,78.70
2022-12-25T00:17:22.643Z,78.80
2022-12-25T00:19:52.429Z,78.90
2022-12-25T00:22:20.635Z,79.00
2022-12-25T00:24:49.430Z,78.90
2022-12-25T00:27:17.782Z,78.90
2022-12-25T00:29:45.947Z,78.90
2022-12-25T00:32:14.141Z,79.00
2022-12-25T00:34:42.273Z,79.00
2022-12-25T00:37:11.817Z,79.00
2022-12-25T00:39:40.182Z,79.00
2022-12-25T00:42:20.566Z,79.00
2022-12-25T00:44:49.647Z,78.90
2022-12-25T00:47:18.822Z,78.80
2022-12-25T00:49:47.155Z,78.70
2022-12-25T00:52:16.889Z,78.70
2022-12-25T00:54:45.112Z,78.60
2022-12-25T00:57:13.259Z,78.50
2022-12-25T00:59:41.412Z,78.40
2022-12-25T01:02:24.606Z,78.30
2022-12-25T01:04:53.983Z,78.30
2022-12-25T01:07:25.426Z,78.40
2022-12-25T01:10:11.743Z,78.30
2022-12-25T01:12:41.705Z,78.30
2022-12-25T01:15:11.573Z,78.40
2022-12-25T01:17:39.726Z,78.40
2022-12-25T01:20:12.460Z,78.30
2022-12-25T01:22:42.166Z,78.30
2022-12-25T01:25:11.278Z,78.30
2022-12-25T01:27:54.947Z,78.30
2022-12-25T01:30:23.127Z,78.50
2022-12-25T01:32:51.373Z,78.40
2022-12-25T01:39:08.631Z,78.60
2022-12-25T01:41:36.802Z,78.50
2022-12-25T01:44:09.159Z,78.40
2022-12-25T01:46:37.650Z,78.50
2022-12-25T01:49:09.286Z,78.40
2022-12-25T01:51:41.156Z,78.50
2022-12-25T01:54:14.601Z,78.50
2022-12-25T01:56:45.571Z,78.50
2022-12-25T01:59:17.337Z,78.40
2022-12-25T02:01:45.980Z,78.40
2022-12-25T02:04:20.693Z,78.30
2022-12-25T02:06:51.023Z,78.30
2022-12-25T02:09:20.693Z,78.20
2022-12-25T02:11:58.204Z,78.10
2022-12-25T02:14:28.810Z,78.00
2022-12-25T02:17:06.090Z,77.90
2022-12-25T02:19:52.635Z,78.00
2022-12-25T02:22:31.677Z,78.00
2022-12-25T02:25:11.877Z,78.10
2022-12-25T02:27:59.908Z,78.20
2022-12-25T02:30:30.817Z,78.30
2022-12-25T02:33:16.442Z,78.20
2022-12-25T02:35:48.689Z,78.90
2022-12-25T02:38:21.225Z,78.30
2022-12-25T02:40:54.838Z,78.30
2022-12-25T02:43:47.155Z,78.30
2022-12-25T02:46:34.202Z,78.40
2022-12-25T02:49:24.143Z,78.50
2022-12-25T02:52:15.035Z,78.30
2022-12-25T02:55:05.422Z,78.30
2022-12-25T02:58:09.794Z,78.30
2022-12-25T03:00:59.837Z,78.30
2022-12-25T03:03:51.513Z,78.30
2022-12-25T03:06:39.277Z,78.30
2022-12-25T03:09:27.878Z,78.40
2022-12-25T03:12:03.709Z,78.40
2022-12-25T03:14:49.735Z,78.40
2022-12-25T03:17:19.582Z,78.40
2022-12-25T03:20:05.107Z,78.50
2022-12-25T03:22:53.907Z,78.50
2022-12-25T03:25:40.429Z,78.50
2022-12-25T03:28:08.657Z,78.60
2022-12-25T03:31:00.409Z,78.60
2022-12-25T03:33:44.990Z,78.60
2022-12-25T03:36:18.840Z,78.80
2022-12-25T03:39:11.294Z,78.70
2022-12-25T03:42:02.723Z,78.80
2022-12-25T03:44:57.860Z,78.70
2022-12-25T03:47:47.970Z,78.70
2022-12-25T03:50:38.490Z,78.70
2022-12-25T03:53:28.917Z,78.70
2022-12-25T03:56:15.752Z,78.80
2022-12-25T03:59:10.071Z,78.80
2022-12-25T04:01:55.581Z,78.90
2022-12-25T04:04:41.601Z,78.90
2022-12-25T04:07:29.081Z,78.90
2022-12-25T04:10:14.934Z,79.10
2022-12-25T04:13:00.541Z,79.30
2022-12-25T04:15:46.275Z,79.30
2022-12-25T04:18:32.210Z,79.30
2022-12-25T04:21:17.848Z,79.40
2022-12-25T04:24:04.952Z,79.50
2022-12-25T04:26:50.190Z,79.60
2022-12-25T04:29:35.898Z,79.60
2022-12-25T04:32:21.535Z,79.60
2022-12-25T04:35:07.173Z,79.70
2022-12-25T04:37:35.369Z,79.70
2022-12-25T04:40:05.768Z,79.70
2022-12-25T04:42:33.979Z,79.70
2022-12-25T04:45:02.114Z,79.70
2022-12-25T04:47:30.296Z,79.70
2022-12-25T04:49:58.425Z,79.70
2022-12-25T04:52:26.594Z,79.70
2022-12-25T04:54:54.754Z,79.50
2022-12-25T04:57:24.282Z,79.50
2022-12-25T04:59:52.408Z,79.40
2022-12-25T05:02:20.657Z,79.30
2022-12-25T05:04:49.007Z,79.20
2022-12-25T05:07:17.698Z,79.20
2022-12-25T05:09:45.936Z,79.10
2022-12-25T05:12:14.598Z,79.00
2022-12-25T05:14:44.156Z,79.00
2022-12-25T05:17:12.300Z,79.00
2022-12-25T05:19:40.601Z,79.00
2022-12-25T05:22:08.751Z,78.90
2022-12-25T05:24:36.925Z,78.90
2022-12-25T05:27:05.221Z,78.90
2022-12-25T05:29:33.395Z,78.90
2022-12-25T05:32:02.950Z,78.90
2022-12-25T05:34:31.099Z,78.90
2022-12-25T05:36:59.313Z,78.90
2022-12-25T05:39:27.499Z,79.00
2022-12-25T05:41:55.646Z,79.10
2022-12-25T05:44:24.037Z,79.20
2022-12-25T05:46:52.247Z,79.20
2022-12-25T05:49:21.832Z,79.40
2022-12-25T05:51:49.976Z,79.40
2022-12-25T05:54:18.223Z,79.40
2022-12-25T05:56:46.384Z,79.40
2022-12-25T05:59:14.560Z,79.40
2022-12-25T06:01:42.841Z,79.50
2022-12-25T06:04:13.050Z,79.60
2022-12-25T06:06:42.864Z,79.70
2022-12-25T06:09:13.299Z,79.70
2022-12-25T06:11:41.938Z,79.70
2022-12-25T06:14:13.117Z,79.60
2022-12-25T06:16:41.502Z,80.30
2022-12-25T06:19:09.977Z,79.60
2022-12-25T06:21:38.301Z,79.50
2022-12-25T06:24:08.453Z,79.50
2022-12-25T06:26:36.726Z,79.60
2022-12-25T06:29:04.949Z,79.60
2022-12-25T06:31:33.302Z,79.50
2022-12-25T06:34:01.447Z,79.60
2022-12-25T06:36:30.401Z,79.50
2022-12-25T06:39:01.758Z,79.40
2022-12-25T06:41:31.677Z,79.40
2022-12-25T06:44:01.909Z,79.40
2022-12-25T06:46:31.216Z,79.50
2022-12-25T06:49:00.353Z,79.50
2022-12-25T06:51:30.819Z,79.50
2022-12-25T06:53:59.365Z,79.40
2022-12-25T06:56:30.261Z,79.40
2022-12-25T06:59:00.419Z,79.50
2022-12-25T07:01:32.118Z,79.40
2022-12-25T07:04:03.242Z,79.40
2022-12-25T07:06:31.753Z,79.40
2022-12-25T07:09:00.274Z,79.30
2022-12-25T07:11:28.519Z,79.30
2022-12-25T07:13:58.069Z,79.40
2022-12-25T07:16:26.268Z,79.60
2022-12-25T07:18:54.484Z,79.50
2022-12-25T07:21:22.972Z,79.40
2022-12-25T07:23:51.655Z,79.40
2022-12-25T07:26:19.953Z,79.20
2022-12-25T07:28:48.182Z,79.30
2022-12-25T07:31:18.925Z,79.20
2022-12-25T07:33:47.316Z,79.10
2022-12-25T07:36:16.699Z,79.00
2022-12-25T07:38:45.057Z,78.90
2022-12-25T07:41:13.908Z,78.90
2022-12-25T07:43:42.165Z,78.90
2022-12-25T07:46:10.779Z,78.90
2022-12-25T07:48:40.467Z,78.90
2022-12-25T07:51:11.913Z,78.90
2022-12-25T07:53:40.639Z,78.90
2022-12-25T07:56:12.082Z,79.00
2022-12-25T07:58:41.017Z,79.10
2022-12-25T08:01:12.496Z,79.10
2022-12-25T08:03:42.227Z,79.20
2022-12-25T08:06:12.112Z,79.20
2022-12-25T08:08:42.152Z,79.30
2022-12-25T08:11:11.472Z,79.30
2022-12-25T08:13:40.316Z,79.30
2022-12-25T08:16:11.128Z,79.40
2022-12-25T08:18:43.023Z,79.40
2022-12-25T08:21:13.200Z,79.40
2022-12-25T08:23:43.852Z,79.50
2022-12-25T08:26:13.853Z,79.60
2022-12-25T08:28:42.276Z,80.30
2022-12-25T08:31:12.233Z,79.70
2022-12-25T08:33:41.949Z,79.80
2022-12-25T08:36:12.274Z,79.80
2022-12-25T08:38:41.273Z,79.90
2022-12-25T08:41:10.267Z,80.00
2022-12-25T08:43:38.622Z,80.00
2022-12-25T08:46:07.379Z,80.00
2022-12-25T08:48:36.641Z,79.90
2022-12-25T08:51:09.495Z,79.90
2022-12-25T08:53:37.886Z,79.90
2022-12-25T08:56:06.490Z,80.00
2022-12-25T08:58:34.717Z,80.00
2022-12-25T09:01:03.290Z,80.00
2022-12-25T09:03:33.351Z,80.10
2022-12-25T09:06:05.981Z,80.20
2022-12-25T09:08:34.352Z,80.40
2022-12-25T09:11:03.681Z,80.40
2022-12-25T09:13:32.002Z,80.40
2022-12-25T09:16:00.350Z,80.40
2022-12-25T09:18:28.549Z,80.50
2022-12-25T09:21:00.997Z,80.50
2022-12-25T09:23:30.878Z,80.60
2022-12-25T09:26:00.389Z,80.50
2022-12-25T09:28:28.650Z,80.50
2022-12-25T09:30:56.902Z,80.40
2022-12-25T09:33:25.646Z,80.20
2022-12-25T09:35:57.736Z,80.10
2022-12-25T09:38:26.208Z,79.90
2022-12-25T09:41:02.661Z,79.80
2022-12-25T09:43:34.490Z,79.80
2022-12-25T09:46:05.275Z,79.70
2022-12-25T09:48:36.782Z,79.70
2022-12-25T09:51:10.829Z,79.70
2022-12-25T09:53:41.699Z,79.80
2022-12-25T09:56:15.121Z,79.70
2022-12-25T09:58:43.368Z,79.80
2022-12-25T10:01:28.045Z,79.80
2022-12-25T10:04:22.757Z,79.90
2022-12-25T10:07:03.219Z,80.00
2022-12-25T10:09:52.877Z,79.70
2022-12-25T10:12:36.162Z,80.30
2022-12-25T10:15:31.751Z,79.50
2022-12-25T10:18:28.668Z,79.40
2022-12-25T10:20:59.224Z,79.40
2022-12-25T10:23:30.668Z,79.40
2022-12-25T10:25:58.908Z,79.40
2022-12-25T10:28:36.162Z,79.50
2022-12-25T10:31:21.781Z,79.50
2022-12-25T10:33:51.097Z,79.50
2022-12-25T10:36:22.778Z,79.50
2022-12-25T10:38:51.069Z,79.50
2022-12-25T10:41:28.658Z,79.50
2022-12-25T10:43:58.846Z,79.60
2022-12-25T10:46:30.347Z,79.50
2022-12-25T10:49:01.679Z,79.50
2022-12-25T10:51:34.546Z,79.50
2022-12-25T10:54:03.885Z,79.50
2022-12-25T10:56:32.024Z,79.50
2022-12-25T10:59:08.736Z,79.60
2022-12-25T11:01:37.009Z,79.50
2022-12-25T11:04:05.320Z,79.40
2022-12-25T11:06:34.584Z,79.40
2022-12-25T11:09:04.192Z,79.60
2022-12-25T11:11:32.554Z,79.60
2022-12-25T11:14:02.899Z,79.50
2022-12-25T11:16:35.990Z,79.70
2022-12-25T11:19:05.124Z,79.80
2022-12-25T11:21:34.557Z,79.90
2022-12-25T11:24:04.091Z,79.90
2022-12-25T11:26:38.237Z,79.90
2022-12-25T11:29:17.144Z,79.90
2022-12-25T11:31:48.614Z,79.80
2022-12-25T11:34:27.174Z,79.70
2022-12-25T11:36:55.634Z,79.70
2022-12-25T11:39:26.502Z,79.50
2022-12-25T11:41:59.078Z,79.40
2022-12-25T11:44:37.772Z,79.30
2022-12-25T11:47:14.724Z,79.30
2022-12-25T11:49:52.963Z,79.20
2022-12-25T11:52:29.475Z,79.10
2022-12-25T11:55:03.579Z,79.10
2022-12-25T11:57:34.264Z,79.20
2022-12-25T12:00:06.906Z,79.10
2022-12-25T12:02:44.354Z,79.10
2022-12-25T12:05:19.863Z,79.10
2022-12-25T12:08:00.216Z,79.00
2022-12-25T12:10:38.776Z,79.50
2022-12-25T12:13:27.096Z,78.60
2022-12-25T12:15:55.619Z,78.70
2022-12-25T12:18:31.535Z,78.70
2022-12-25T12:21:02.197Z,78.60
2022-12-25T12:23:32.526Z,78.60
2022-12-25T12:26:01.285Z,78.60
2022-12-25T12:28:33.905Z,78.70
2022-12-25T12:31:04.786Z,78.70
2022-12-25T12:33:38.928Z,78.70
2022-12-25T12:36:08.846Z,78.90
2022-12-25T12:38:39.025Z,78.90
2022-12-25T12:41:09.403Z,79.10
2022-12-25T12:43:40.843Z,79.10
2022-12-25T12:46:17.946Z,79.00
2022-12-25T12:48:49.485Z,79.10
2022-12-25T12:51:30.049Z,79.10
2022-12-25T12:54:21.570Z,79.10
2022-12-25T12:57:00.231Z,79.00
2022-12-25T12:59:34.601Z,78.80
2022-12-25T13:02:22.282Z,78.90
2022-12-25T13:04:58.002Z,79.10
2022-12-25T13:07:44.052Z,79.10
2022-12-25T13:10:24.308Z,79.20
2022-12-25T13:12:55.269Z,79.10
2022-12-25T13:15:26.589Z,79.10
2022-12-25T13:17:58.778Z,79.20
2022-12-25T13:20:38.772Z,79.20
2022-12-25T13:23:15.505Z,79.20
2022-12-25T13:25:53.752Z,79.20
2022-12-25T13:28:27.234Z,79.20
2022-12-25T13:30:55.527Z,79.20
2022-12-25T13:33:23.894Z,79.10
2022-12-25T13:35:53.592Z,79.00
2022-12-25T13:38:24.083Z,78.90
2022-12-25T13:41:08.499Z,78.80
2022-12-25T13:43:36.853Z,78.70
2022-12-25T13:46:05.273Z,78.50
2022-12-25T13:48:33.601Z,78.40
2022-12-25T13:51:03.575Z,78.30
2022-12-25T13:53:31.804Z,78.30
2022-12-25T13:56:00.330Z,78.30
2022-12-25T13:58:31.584Z,78.20
2022-12-25T14:01:01.240Z,78.20
2022-12-25T14:03:35.895Z,78.10
2022-12-25T14:06:08.458Z,78.10
2022-12-25T14:08:37.609Z,77.90
2022-12-25T14:11:08.667Z,77.90
2022-12-25T14:13:39.651Z,77.90
2022-12-25T14:16:08.928Z,77.80
2022-12-25T14:18:37.477Z,77.80
2022-12-25T14:21:09.150Z,77.80
2022-12-25T14:23:42.942Z,77.80
2022-12-25T14:26:17.267Z,77.80
2022-12-25T14:28:49.135Z,77.80
2022-12-25T14:31:17.861Z,77.80
2022-12-25T14:33:47.246Z,77.90
2022-12-25T14:36:17.089Z,77.80
2022-12-25T14:38:46.040Z,77.90
2022-12-25T14:41:33.386Z,78.00
2022-12-25T14:44:03.851Z,78.10
2022-12-25T14:46:34.288Z,78.10
2022-12-25T14:49:07.230Z,78.10
2022-12-25T14:51:40.073Z,78.10
2022-12-25T14:54:17.614Z,78.20
2022-12-25T14:56:49.538Z,78.20
2022-12-25T14:59:19.086Z,78.10
2022-12-25T15:01:53.353Z,78.30
2022-12-25T15:04:22.444Z,78.10
2022-12-25T15:06:56.784Z,78.10
2022-12-25T15:09:26.096Z,78.10
2022-12-25T15:11:56.893Z,78.20
2022-12-25T15:14:25.664Z,78.20
2022-12-25T15:16:56.442Z,78.20
2022-12-25T15:19:31.743Z,78.20
2022-12-25T15:22:04.910Z,78.20
2022-12-25T15:24:33.095Z,78.10
2022-12-25T15:27:01.772Z,78.20
2022-12-25T15:30:07.863Z,78.20
2022-12-25T15:32:20.933Z,78.20
2022-12-25T15:34:50.046Z,78.20
2022-12-25T15:37:20.121Z,78.10
2022-12-25T15:39:48.462Z,78.10
2022-12-25T15:42:18.065Z,78.10
2022-12-25T15:44:46.720Z,78.10
2022-12-25T15:47:16.426Z,78.00
2022-12-25T15:49:44.749Z,78.10
2022-12-25T15:52:15.359Z,78.10
2022-12-25T15:54:45.070Z,78.10
2022-12-25T15:57:19.514Z,78.10
2022-12-25T15:59:47.731Z,78.00
2022-12-25T16:02:17.892Z,78.10
2022-12-25T16:04:46.494Z,78.00
2022-12-25T16:07:16.963Z,77.90
2022-12-25T16:09:46.898Z,77.90
2022-12-25T16:12:15.185Z,78.00
2022-12-25T16:14:43.635Z,78.00
2022-12-25T16:17:14.051Z,78.00
2022-12-25T16:19:42.249Z,78.00
2022-12-25T16:22:13.376Z,78.00
2022-12-25T16:24:41.695Z,78.00
2022-12-25T16:27:11.255Z,78.00
2022-12-25T16:29:39.403Z,78.00
2022-12-25T16:32:07.633Z,78.00
2022-12-25T16:34:35.958Z,78.10
2022-12-25T16:37:04.143Z,78.10
2022-12-25T16:39:32.315Z,78.20
2022-12-25T16:42:00.904Z,78.20
2022-12-25T16:44:30.629Z,78.10
2022-12-25T16:46:58.899Z,78.00
2022-12-25T16:49:27.092Z,78.00
2022-12-25T16:51:55.253Z,78.00
2022-12-25T16:54:23.413Z,78.00
2022-12-25T16:56:51.824Z,78.00
2022-12-25T16:59:20.038Z,77.90
2022-12-25T17:01:49.796Z,78.00
2022-12-25T17:04:18.078Z,78.00
2022-12-25T17:06:46.250Z,77.90
2022-12-25T17:09:14.455Z,77.90
2022-12-25T17:11:42.707Z,78.00
2022-12-25T17:14:11.642Z,78.10
2022-12-25T17:16:41.079Z,78.10
2022-12-25T17:19:18.668Z,78.20
2022-12-25T17:21:46.957Z,78.40
2022-12-25T17:24:15.510Z,78.30
2022-12-25T17:26:44.231Z,78.30
2022-12-25T17:29:17.195Z,78.30
2022-12-25T17:31:49.809Z,78.40
2022-12-25T17:34:19.593Z,78.40
2022-12-25T17:36:48.010Z,78.40
2022-12-25T17:39:16.198Z,78.40
2022-12-25T17:41:44.417Z,78.40
2022-12-25T17:44:13.307Z,78.40
2022-12-25T17:46:42.121Z,78.40
2022-12-25T17:49:15.623Z,78.40
2022-12-25T17:51:45.520Z,78.50
2022-12-25T17:54:14.081Z,78.50
2022-12-25T17:56:42.320Z,78.50
2022-12-25T17:59:18.417Z,78.50
2022-12-25T18:01:49.103Z,78.50
2022-12-25T18:04:17.659Z,78.50
2022-12-25T18:06:47.407Z,78.50
2022-12-25T18:09:15.611Z,78.60
2022-12-25T18:11:44.765Z,78.60
2022-12-25T18:14:16.095Z,78.60
2022-12-25T18:16:46.181Z,78.60
2022-12-25T18:19:15.759Z,78.70
2022-12-25T18:21:43.990Z,78.70
2022-12-25T18:24:13.889Z,78.70
2022-12-25T18:26:42.306Z,78.60
2022-12-25T18:29:10.522Z,78.60
2022-12-25T18:31:38.994Z,78.60
2022-12-25T18:34:07.200Z,78.70
2022-12-25T18:36:35.458Z,78.60
2022-12-25T18:39:03.679Z,78.50
2022-12-25T18:41:53.264Z,78.60
2022-12-25T18:44:21.435Z,78.60
2022-12-25T18:46:49.829Z,78.50
2022-12-25T18:49:18.131Z,78.50
2022-12-25T18:51:46.300Z,78.60
2022-12-25T18:54:14.460Z,78.60
2022-12-25T18:56:44.022Z,78.50
2022-12-25T18:59:12.499Z,78.60
2022-12-25T19:01:40.977Z,78.60
2022-12-25T19:04:12.721Z,78.60
2022-12-25T19:06:41.227Z,78.70
2022-12-25T19:09:09.971Z,78.80
2022-12-25T19:11:46.129Z,78.70
2022-12-25T19:14:16.603Z,78.70
2022-12-25T19:16:44.919Z,78.90
2022-12-25T19:19:14.622Z,78.90
2022-12-25T19:21:43.336Z,79.00
2022-12-25T19:24:11.527Z,78.90
2022-12-25T19:26:39.786Z,78.90
2022-12-25T19:29:08.022Z,79.00
2022-12-25T19:31:38.276Z,79.00
2022-12-25T19:34:06.792Z,79.10
2022-12-25T19:36:35.299Z,79.10
2022-12-25T19:39:03.642Z,79.20
2022-12-25T19:41:31.873Z,79.30
2022-12-25T19:44:00.209Z,79.30
2022-12-25T19:46:30.829Z,79.40
2022-12-25T19:49:04.036Z,79.40
2022-12-25T19:51:34.286Z,79.50
2022-12-25T19:54:03.190Z,79.50
2022-12-25T19:56:31.799Z,79.60
2022-12-25T19:59:00.981Z,79.60
2022-12-25T20:01:30.509Z,79.70
2022-12-25T20:04:00.677Z,79.60
2022-12-25T20:06:31.562Z,79.70
2022-12-25T20:09:02.154Z,79.70
2022-12-25T20:11:32.353Z,79.70
2022-12-25T20:14:00.881Z,79.70
2022-12-25T20:16:29.394Z,79.70
2022-12-25T20:19:00.421Z,79.90
2022-12-25T20:21:29.943Z,79.90
2022-12-25T20:23:58.834Z,79.90
2022-12-25T20:26:29.390Z,79.90
2022-12-25T20:28:58.190Z,79.90
2022-12-25T20:31:28.606Z,79.80
2022-12-25T20:33:57.731Z,79.80
2022-12-25T20:36:32.785Z,79.80
2022-12-25T20:39:05.088Z,80.70
2022-12-25T20:41:33.271Z,80.00
2022-12-25T20:44:01.958Z,80.10
2022-12-25T20:46:30.326Z,80.10
2022-12-25T20:48:58.625Z,80.10
2022-12-25T20:51:28.431Z,80.00
2022-12-25T20:53:57.471Z,80.00
2022-12-25T20:56:27.152Z,80.00
2022-12-25T20:58:56.669Z,80.00
2022-12-25T21:01:25.387Z,80.00
2022-12-25T21:03:53.807Z,79.90
2022-12-25T21:06:22.382Z,80.00
2022-12-25T21:08:54.491Z,79.90
2022-12-25T21:11:22.970Z,79.80
2022-12-25T21:13:51.187Z,79.80
2022-12-25T21:16:22.137Z,79.70
2022-12-25T21:18:52.393Z,79.70
2022-12-25T21:21:21.670Z,79.60
2022-12-25T21:23:51.283Z,79.70
2022-12-25T21:26:22.177Z,79.80
2022-12-25T21:28:52.319Z,79.80
2022-12-25T21:31:21.439Z,79.80
2022-12-25T21:33:53.473Z,79.80
2022-12-25T21:36:26.916Z,79.80
2022-12-25T21:38:58.427Z,82.00
2022-12-25T21:41:27.907Z,81.20
2022-12-25T21:43:56.801Z,80.10
2022-12-25T21:46:25.624Z,79.10
2022-12-25T21:48:54.753Z,78.40
2022-12-25T21:51:42.616Z,78.10
2022-12-25T21:54:13.904Z,77.80
2022-12-25T21:56:45.678Z,77.60
2022-12-25T21:59:15.894Z,77.60
2022-12-25T22:01:45.198Z,77.70
2022-12-25T22:04:15.069Z,77.80
2022-12-25T22:07:01.030Z,77.90
2022-12-25T22:09:31.415Z,78.10
2022-12-25T22:12:17.500Z,78.30
2022-12-25T22:14:57.146Z,78.40
2022-12-25T22:17:45.053Z,78.60
2022-12-25T22:20:15.967Z,78.60
2022-12-25T22:22:44.594Z,78.70
2022-12-25T22:25:15.205Z,78.80
2022-12-25T22:27:44.978Z,78.80
2022-12-25T22:30:15.522Z,79.60
2022-12-25T22:32:44.045Z,78.90
2022-12-25T22:35:13.428Z,79.00
2022-12-25T22:37:42.365Z,79.10
2022-12-25T22:40:15.409Z,79.00
2022-12-25T22:42:43.921Z,79.00
2022-12-25T22:45:13.156Z,79.00
2022-12-25T22:47:41.644Z,79.00
2022-12-25T22:50:11.116Z,79.00
2022-12-25T22:52:39.606Z,79.00
2022-12-25T22:55:10.095Z,79.00
2022-12-25T22:57:39.726Z,78.90
2022-12-25T23:00:09.891Z,78.80
2022-12-25T23:02:38.372Z,78.80
2022-12-25T23:05:07.435Z,78.80
2022-12-25T23:07:35.666Z,78.70
2022-12-25T23:10:03.878Z,78.60
2022-12-25T23:12:49.467Z,78.60
2022-12-25T23:15:19.201Z,78.70
2022-12-25T23:18:04.871Z,78.50
2022-12-25T23:20:51.346Z,78.50
2022-12-25T23:23:36.813Z,78.40
2022-12-25T23:26:11.459Z,78.40
2022-12-25T23:28:59.267Z,78.40
2022-12-25T23:31:31.707Z,78.40
2022-12-25T23:34:00.642Z,78.30
2022-12-25T23:36:28.866Z,78.20
2022-12-25T23:38:59.293Z,78.20
2022-12-25T23:41:31.400Z,78.20
2022-12-25T23:43:59.885Z,78.20
2022-12-25T23:46:29.529Z,78.10
2022-12-25T23:48:57.859Z,78.20
2022-12-25T23:51:26.783Z,78.20
2022-12-25T23:53:55.046Z,78.20
2022-12-25T23:56:23.348Z,78.20
2022-12-25T23:58:52.505Z,78.20
